sensor_id;sensor_type;location;lat;lon;timestamp;pressure;altitude;pressure_sealevel;temperature;humidity
70976;BME280;58635;51.198;6.010;2023-02-16T00:01:31;102311.88;;;10.24;55.08
70976;BME280;58635;51.198;6.010;2023-02-16T00:03:58;102305.25;;;10.22;55.10
70976;BME280;58635;51.198;6.010;2023-02-16T00:06:24;102303.22;;;10.16;55.07
70976;BME280;58635;51.198;6.010;2023-02-16T00:08:53;102300.28;;;10.11;55.36
70976;BME280;58635;51.198;6.010;2023-02-16T00:11:31;102301.44;;;10.16;55.30
70976;BME280;58635;51.198;6.010;2023-02-16T00:14:18;102308.06;;;10.11;55.47
70976;BME280;58635;51.198;6.010;2023-02-16T00:16:47;102303.28;;;9.98;55.40
70976;BME280;58635;51.198;6.010;2023-02-16T00:21:40;102293.38;;;9.93;55.58
70976;BME280;58635;51.198;6.010;2023-02-16T00:24:06;102307.13;;;9.94;55.73
70976;BME280;58635;51.198;6.010;2023-02-16T00:26:33;102292.22;;;9.88;55.50
70976;BME280;58635;51.198;6.010;2023-02-16T00:28:59;102298.53;;;9.85;55.51
70976;BME280;58635;51.198;6.010;2023-02-16T00:31:26;102297.50;;;9.78;55.73
70976;BME280;58635;51.198;6.010;2023-02-16T00:33:53;102295.06;;;9.77;55.66
70976;BME280;58635;51.198;6.010;2023-02-16T00:36:19;102298.38;;;9.69;55.84
70976;BME280;58635;51.198;6.010;2023-02-16T00:38:45;102298.91;;;9.73;55.88
70976;BME280;58635;51.198;6.010;2023-02-16T00:41:18;102283.19;;;9.66;56.01
70976;BME280;58635;51.198;6.010;2023-02-16T00:44:05;102283.50;;;9.63;55.75
70976;BME280;58635;51.198;6.010;2023-02-16T00:46:31;102276.50;;;9.55;55.97
70976;BME280;58635;51.198;6.010;2023-02-16T00:49:00;102278.13;;;9.56;55.98
70976;BME280;58635;51.198;6.010;2023-02-16T00:51:42;102287.78;;;9.54;56.02
70976;BME280;58635;51.198;6.010;2023-02-16T00:54:12;102254.91;;;9.38;56.00
70976;BME280;58635;51.198;6.010;2023-02-16T00:57:11;102262.28;;;9.33;55.94
70976;BME280;58635;51.198;6.010;2023-02-16T00:59:48;102283.34;;;9.47;56.02
70976;BME280;58635;51.198;6.010;2023-02-16T01:02:19;102277.69;;;9.43;56.54
70976;BME280;58635;51.198;6.010;2023-02-16T01:04:44;102285.09;;;9.38;56.25
70976;BME280;58635;51.198;6.010;2023-02-16T01:07:14;102279.53;;;9.33;56.24
70976;BME280;58635;51.198;6.010;2023-02-16T01:09:58;102287.81;;;9.36;56.30
70976;BME280;58635;51.198;6.010;2023-02-16T01:12:42;102284.84;;;9.31;56.42
70976;BME280;58635;51.198;6.010;2023-02-16T01:15:13;102285.66;;;9.32;56.07
70976;BME280;58635;51.198;6.010;2023-02-16T01:17:39;102287.44;;;9.31;56.35
70976;BME280;58635;51.198;6.010;2023-02-16T01:20:20;102284.34;;;9.28;56.42
70976;BME280;58635;51.198;6.010;2023-02-16T01:22:46;102283.53;;;9.27;56.47
70976;BME280;58635;51.198;6.010;2023-02-16T01:25:13;102283.84;;;9.24;56.49
70976;BME280;58635;51.198;6.010;2023-02-16T01:27:38;102279.09;;;9.20;56.24
70976;BME280;58635;51.198;6.010;2023-02-16T01:30:07;102287.81;;;9.19;56.26
70976;BME280;58635;51.198;6.010;2023-02-16T01:32:32;102286.63;;;9.13;56.22
70976;BME280;58635;51.198;6.010;2023-02-16T01:34:58;102277.84;;;9.06;56.31
70976;BME280;58635;51.198;6.010;2023-02-16T01:37:24;102282.19;;;9.05;56.00
70976;BME280;58635;51.198;6.010;2023-02-16T01:39:49;102283.59;;;9.00;56.05
70976;BME280;58635;51.198;6.010;2023-02-16T01:42:35;102290.38;;;9.01;56.03
70976;BME280;58635;51.198;6.010;2023-02-16T01:45:12;102283.22;;;8.95;56.01
70976;BME280;58635;51.198;6.010;2023-02-16T01:47:46;102282.03;;;8.89;55.84
70976;BME280;58635;51.198;6.010;2023-02-16T01:50:24;102273.75;;;8.86;55.90
70976;BME280;58635;51.198;6.010;2023-02-16T01:55:32;102275.31;;;8.78;56.02
70976;BME280;58635;51.198;6.010;2023-02-16T01:58:15;102273.00;;;8.75;55.82
70976;BME280;58635;51.198;6.010;2023-02-16T02:03:28;102270.56;;;8.74;55.54
70976;BME280;58635;51.198;6.010;2023-02-16T02:06:14;102257.31;;;8.69;56.25
70976;BME280;58635;51.198;6.010;2023-02-16T02:11:40;102266.41;;;8.63;56.00
70976;BME280;58635;51.198;6.010;2023-02-16T02:14:16;102259.94;;;8.59;56.02
70976;BME280;58635;51.198;6.010;2023-02-16T02:16:53;102259.41;;;8.56;55.92
70976;BME280;58635;51.198;6.010;2023-02-16T02:19:19;102255.22;;;8.55;56.06
70976;BME280;58635;51.198;6.010;2023-02-16T02:30:10;102246.84;;;8.43;56.35
70976;BME280;58635;51.198;6.010;2023-02-16T02:35:35;102231.00;;;8.38;56.45
70976;BME280;58635;51.198;6.010;2023-02-16T02:38:13;102220.97;;;8.35;56.47
70976;BME280;58635;51.198;6.010;2023-02-16T02:43:22;102216.22;;;8.30;56.40
70976;BME280;58635;51.198;6.010;2023-02-16T02:45:55;102217.19;;;8.29;56.44
70976;BME280;58635;51.198;6.010;2023-02-16T02:48:28;102225.03;;;8.28;56.41
70976;BME280;58635;51.198;6.010;2023-02-16T02:50:58;102212.16;;;8.28;56.47
70976;BME280;58635;51.198;6.010;2023-02-16T02:54:03;102211.09;;;8.20;56.66
70976;BME280;58635;51.198;6.010;2023-02-16T02:56:58;102213.53;;;8.22;56.83
70976;BME280;58635;51.198;6.010;2023-02-16T02:59:57;102203.78;;;8.16;56.58
70976;BME280;58635;51.198;6.010;2023-02-16T03:02:44;102202.97;;;8.15;56.64
70976;BME280;58635;51.198;6.010;2023-02-16T03:05:12;102198.78;;;8.14;56.78
70976;BME280;58635;51.198;6.010;2023-02-16T03:07:41;102206.38;;;8.16;56.91
70976;BME280;58635;51.198;6.010;2023-02-16T03:10:18;102185.94;;;8.05;56.69
70976;BME280;58635;51.198;6.010;2023-02-16T03:13:29;102203.28;;;8.12;56.98
70976;BME280;58635;51.198;6.010;2023-02-16T03:15:53;102209.22;;;8.13;56.62
70976;BME280;58635;51.198;6.010;2023-02-16T03:18:22;102196.50;;;8.11;56.58
70976;BME280;58635;51.198;6.010;2023-02-16T03:21:09;102196.94;;;8.07;56.82
70976;BME280;58635;51.198;6.010;2023-02-16T03:23:55;102197.06;;;8.05;56.93
70976;BME280;58635;51.198;6.010;2023-02-16T03:26:41;102191.78;;;8.07;56.96
70976;BME280;58635;51.198;6.010;2023-02-16T03:29:26;102188.66;;;8.03;57.20
70976;BME280;58635;51.198;6.010;2023-02-16T03:31:54;102186.22;;;8.02;56.96
70976;BME280;58635;51.198;6.010;2023-02-16T03:34:21;102181.06;;;8.02;56.96
70976;BME280;58635;51.198;6.010;2023-02-16T03:36:52;102186.78;;;8.05;57.00
70976;BME280;58635;51.198;6.010;2023-02-16T03:39:19;102183.66;;;8.02;56.96
70976;BME280;58635;51.198;6.010;2023-02-16T03:41:48;102188.00;;;8.01;56.85
70976;BME280;58635;51.198;6.010;2023-02-16T03:44:14;102188.94;;;8.00;57.22
70976;BME280;58635;51.198;6.010;2023-02-16T03:46:40;102190.41;;;8.03;56.81
70976;BME280;58635;51.198;6.010;2023-02-16T03:49:05;102193.94;;;8.02;56.96
70976;BME280;58635;51.198;6.010;2023-02-16T03:51:31;102184.44;;;8.02;56.92
70976;BME280;58635;51.198;6.010;2023-02-16T03:53:56;102184.09;;;7.97;56.90
70976;BME280;58635;51.198;6.010;2023-02-16T03:56:21;102180.69;;;7.97;56.72
70976;BME280;58635;51.198;6.010;2023-02-16T03:58:47;102187.19;;;8.01;56.92
70976;BME280;58635;51.198;6.010;2023-02-16T04:01:12;102175.53;;;7.97;56.94
70976;BME280;58635;51.198;6.010;2023-02-16T04:03:38;102174.44;;;7.99;56.82
70976;BME280;58635;51.198;6.010;2023-02-16T04:06:03;102185.25;;;8.03;57.02
70976;BME280;58635;51.198;6.010;2023-02-16T04:08:29;102185.41;;;8.01;57.08
70976;BME280;58635;51.198;6.010;2023-02-16T04:10:54;102175.69;;;7.95;56.95
70976;BME280;58635;51.198;6.010;2023-02-16T04:13:22;102184.44;;;8.02;57.09
70976;BME280;58635;51.198;6.010;2023-02-16T04:15:47;102188.81;;;8.02;56.97
70976;BME280;58635;51.198;6.010;2023-02-16T04:18:13;102189.91;;;7.99;57.12
70976;BME280;58635;51.198;6.010;2023-02-16T04:20:38;102187.47;;;7.98;56.92
70976;BME280;58635;51.198;6.010;2023-02-16T04:23:04;102183.41;;;7.95;57.16
70976;BME280;58635;51.198;6.010;2023-02-16T04:25:29;102176.91;;;7.91;56.94
70976;BME280;58635;51.198;6.010;2023-02-16T04:27:55;102177.84;;;7.90;56.97
70976;BME280;58635;51.198;6.010;2023-02-16T04:30:26;102176.91;;;7.91;56.99
70976;BME280;58635;51.198;6.010;2023-02-16T04:32:52;102181.53;;;7.87;57.09
70976;BME280;58635;51.198;6.010;2023-02-16T04:35:18;102178.97;;;7.87;57.28
70976;BME280;58635;51.198;6.010;2023-02-16T04:37:44;102176.69;;;7.84;57.05
70976;BME280;58635;51.198;6.010;2023-02-16T04:40:11;102182.50;;;7.86;56.96
70976;BME280;58635;51.198;6.010;2023-02-16T04:42:41;102184.94;;;7.78;57.00
70976;BME280;58635;51.198;6.010;2023-02-16T04:45:07;102196.63;;;7.82;56.95
70976;BME280;58635;51.198;6.010;2023-02-16T04:47:33;102189.16;;;7.79;57.02
70976;BME280;58635;51.198;6.010;2023-02-16T04:49:58;102192.00;;;7.76;57.35
70976;BME280;58635;51.198;6.010;2023-02-16T04:52:23;102198.94;;;7.76;57.28
70976;BME280;58635;51.198;6.010;2023-02-16T04:54:49;102191.34;;;7.74;57.39
70976;BME280;58635;51.198;6.010;2023-02-16T04:57:15;102192.16;;;7.75;57.25
70976;BME280;58635;51.198;6.010;2023-02-16T04:59:41;102197.31;;;7.75;57.38
70976;BME280;58635;51.198;6.010;2023-02-16T05:02:06;102201.50;;;7.76;57.09
70976;BME280;58635;51.198;6.010;2023-02-16T05:04:32;102202.44;;;7.75;57.24
70976;BME280;58635;51.198;6.010;2023-02-16T05:06:58;102204.06;;;7.76;57.39
70976;BME280;58635;51.198;6.010;2023-02-16T05:09:23;102194.72;;;7.75;57.12
70976;BME280;58635;51.198;6.010;2023-02-16T05:11:49;102195.41;;;7.77;57.49
70976;BME280;58635;51.198;6.010;2023-02-16T05:14:34;102168.31;;;7.73;57.56
70976;BME280;58635;51.198;6.010;2023-02-16T05:17:07;102170.06;;;7.72;57.72
70976;BME280;58635;51.198;6.010;2023-02-16T05:19:32;102189.16;;;7.79;57.65
70976;BME280;58635;51.198;6.010;2023-02-16T05:21:58;102192.53;;;7.80;57.67
70976;BME280;58635;51.198;6.010;2023-02-16T05:24:23;102166.09;;;7.78;57.77
70976;BME280;58635;51.198;6.010;2023-02-16T05:26:49;102175.06;;;7.83;57.69
70976;BME280;58635;51.198;6.010;2023-02-16T05:29:14;102176.00;;;7.82;57.57
70976;BME280;58635;51.198;6.010;2023-02-16T05:31:40;102190.38;;;7.85;57.71
70976;BME280;58635;51.198;6.010;2023-02-16T05:34:08;102186.03;;;7.85;58.00
70976;BME280;58635;51.198;6.010;2023-02-16T05:36:36;102187.63;;;7.86;57.97
70976;BME280;58635;51.198;6.010;2023-02-16T05:39:02;102181.53;;;7.87;57.70
70976;BME280;58635;51.198;6.010;2023-02-16T05:41:27;102186.16;;;7.84;57.88
70976;BME280;58635;51.198;6.010;2023-02-16T05:43:58;102185.88;;;7.87;57.93
70976;BME280;58635;51.198;6.010;2023-02-16T05:46:25;102179.91;;;7.86;57.71
70976;BME280;58635;51.198;6.010;2023-02-16T05:48:51;102176.53;;;7.86;57.77
70976;BME280;58635;51.198;6.010;2023-02-16T05:51:17;102177.19;;;7.88;57.71
70976;BME280;58635;51.198;6.010;2023-02-16T05:53:43;102190.59;;;7.91;57.76
70976;BME280;58635;51.198;6.010;2023-02-16T05:56:10;102184.47;;;7.92;57.75
70976;BME280;58635;51.198;6.010;2023-02-16T05:58:36;102186.25;;;7.92;57.92
70976;BME280;58635;51.198;6.010;2023-02-16T06:01:01;102187.06;;;7.92;58.23
70976;BME280;58635;51.198;6.010;2023-02-16T06:03:27;102184.38;;;7.94;58.28
70976;BME280;58635;51.198;6.010;2023-02-16T06:05:58;102173.25;;;7.94;57.81
70976;BME280;58635;51.198;6.010;2023-02-16T06:08:24;102171.19;;;7.97;58.12
70976;BME280;58635;51.198;6.010;2023-02-16T06:10:51;102160.22;;;7.95;58.32
70976;BME280;58635;51.198;6.010;2023-02-16T06:13:18;102169.13;;;8.01;58.12
70976;BME280;58635;51.198;6.010;2023-02-16T06:15:44;102151.91;;;8.01;58.10
70976;BME280;58635;51.198;6.010;2023-02-16T06:18:10;102158.44;;;8.05;58.23
70976;BME280;58635;51.198;6.010;2023-02-16T06:20:37;102154.75;;;8.08;58.10
70976;BME280;58635;51.198;6.010;2023-02-16T06:23:02;102144.44;;;8.08;58.30
70976;BME280;58635;51.198;6.010;2023-02-16T06:25:28;102154.44;;;8.11;58.27
70976;BME280;58635;51.198;6.010;2023-02-16T06:27:53;102162.44;;;8.17;58.51
70976;BME280;58635;51.198;6.010;2023-02-16T06:30:22;102169.88;;;8.20;58.24
70976;BME280;58635;51.198;6.010;2023-02-16T06:32:47;102171.72;;;8.28;58.30
70976;BME280;58635;51.198;6.010;2023-02-16T06:35:12;102168.22;;;8.29;58.56
70976;BME280;58635;51.198;6.010;2023-02-16T06:37:38;102180.66;;;8.34;58.41
70976;BME280;58635;51.198;6.010;2023-02-16T06:40:04;102179.19;;;8.31;58.39
70976;BME280;58635;51.198;6.010;2023-02-16T06:42:29;102178.91;;;8.34;58.44
70976;BME280;58635;51.198;6.010;2023-02-16T06:44:55;102183.91;;;8.36;58.45
70976;BME280;58635;51.198;6.010;2023-02-16T06:47:20;102171.28;;;8.33;58.47
70976;BME280;58635;51.198;6.010;2023-02-16T06:49:46;102174.56;;;8.35;58.18
70976;BME280;58635;51.198;6.010;2023-02-16T06:52:17;102152.19;;;8.26;58.31
70976;BME280;58635;51.198;6.010;2023-02-16T06:54:43;102141.75;;;8.27;58.30
70976;BME280;58635;51.198;6.010;2023-02-16T06:57:08;102170.31;;;8.43;58.52
70976;BME280;58635;51.198;6.010;2023-02-16T06:59:33;102145.94;;;8.28;58.64
70976;BME280;58635;51.198;6.010;2023-02-16T07:01:59;102180.03;;;8.49;58.57
70976;BME280;58635;51.198;6.010;2023-02-16T07:04:24;102167.44;;;8.46;58.64
70976;BME280;58635;51.198;6.010;2023-02-16T07:06:50;102179.06;;;8.50;58.64
70976;BME280;58635;51.198;6.010;2023-02-16T07:09:15;102179.22;;;8.49;58.61
70976;BME280;58635;51.198;6.010;2023-02-16T07:11:41;102180.94;;;8.58;58.67
70976;BME280;58635;51.198;6.010;2023-02-16T07:14:06;102178.06;;;8.61;58.69
70976;BME280;58635;51.198;6.010;2023-02-16T07:16:31;102186.34;;;8.65;58.68
70976;BME280;58635;51.198;6.010;2023-02-16T07:18:57;102184.41;;;8.67;59.13
70976;BME280;58635;51.198;6.010;2023-02-16T07:21:22;102192.66;;;8.70;58.73
70976;BME280;58635;51.198;6.010;2023-02-16T07:23:48;102198.19;;;8.75;58.66
70976;BME280;58635;51.198;6.010;2023-02-16T07:26:13;102190.75;;;8.72;58.55
70976;BME280;58635;51.198;6.010;2023-02-16T07:28:39;102196.66;;;8.83;58.61
70976;BME280;58635;51.198;6.010;2023-02-16T07:31:10;102202.47;;;8.85;58.57
70976;BME280;58635;51.198;6.010;2023-02-16T07:33:36;102197.00;;;8.88;58.56
70976;BME280;58635;51.198;6.010;2023-02-16T07:36:02;102193.78;;;8.86;58.50
70976;BME280;58635;51.198;6.010;2023-02-16T07:38:28;102205.81;;;8.95;58.84
70976;BME280;58635;51.198;6.010;2023-02-16T07:40:55;102201.94;;;8.99;58.75
70976;BME280;58635;51.198;6.010;2023-02-16T07:43:22;102195.97;;;8.98;58.60
70976;BME280;58635;51.198;6.010;2023-02-16T07:45:48;102204.19;;;9.12;58.71
70976;BME280;58635;51.198;6.010;2023-02-16T07:48:13;102204.19;;;9.12;58.64
70976;BME280;58635;51.198;6.010;2023-02-16T07:50:39;102216.03;;;9.22;58.67
70976;BME280;58635;51.198;6.010;2023-02-16T07:53:04;102225.63;;;9.30;58.71
70976;BME280;58635;51.198;6.010;2023-02-16T07:55:30;102230.31;;;9.34;58.73
70976;BME280;58635;51.198;6.010;2023-02-16T07:57:55;102221.34;;;9.38;58.58
70976;BME280;58635;51.198;6.010;2023-02-16T08:00:21;102214.09;;;9.42;58.64
70976;BME280;58635;51.198;6.010;2023-02-16T08:02:46;102204.13;;;9.47;58.64
70976;BME280;58635;51.198;6.010;2023-02-16T08:05:12;102212.88;;;9.54;58.65
70976;BME280;58635;51.198;6.010;2023-02-16T08:07:37;102199.81;;;9.56;58.38
70976;BME280;58635;51.198;6.010;2023-02-16T08:10:04;102200.69;;;9.64;58.66
70976;BME280;58635;51.198;6.010;2023-02-16T08:12:31;102205.22;;;9.71;58.46
70976;BME280;58635;51.198;6.010;2023-02-16T08:14:56;102204.31;;;9.80;58.45
70976;BME280;58635;51.198;6.010;2023-02-16T08:17:22;102205.34;;;9.87;58.00
70976;BME280;58635;51.198;6.010;2023-02-16T08:19:47;102207.44;;;9.91;58.44
70976;BME280;58635;51.198;6.010;2023-02-16T08:22:13;102197.31;;;9.98;58.39
70976;BME280;58635;51.198;6.010;2023-02-16T08:24:39;102193.00;;;10.07;58.08
70976;BME280;58635;51.198;6.010;2023-02-16T08:27:05;102187.34;;;10.11;58.19
70976;BME280;58635;51.198;6.010;2023-02-16T08:29:31;102198.91;;;10.25;58.22
70976;BME280;58635;51.198;6.010;2023-02-16T08:31:57;102197.50;;;10.31;58.01
70976;BME280;58635;51.198;6.010;2023-02-16T08:34:23;102198.00;;;10.42;58.16
70976;BME280;58635;51.198;6.010;2023-02-16T08:36:56;102194.44;;;10.51;58.00
70976;BME280;58635;51.198;6.010;2023-02-16T08:39:27;102197.06;;;10.60;57.79
70976;BME280;58635;51.198;6.010;2023-02-16T08:41:54;102197.38;;;10.65;57.69
70976;BME280;58635;51.198;6.010;2023-02-16T08:44:21;102199.66;;;10.76;57.57
70976;BME280;58635;51.198;6.010;2023-02-16T08:46:49;102205.84;;;10.83;57.55
70976;BME280;58635;51.198;6.010;2023-02-16T08:49:16;102206.97;;;10.89;57.44
70976;BME280;58635;51.198;6.010;2023-02-16T08:51:47;102196.78;;;10.87;57.39
70976;BME280;58635;51.198;6.010;2023-02-16T08:54:18;102207.16;;;10.95;57.47
70976;BME280;58635;51.198;6.010;2023-02-16T08:56:45;102209.41;;;10.98;57.32
70976;BME280;58635;51.198;6.010;2023-02-16T08:59:17;102208.28;;;11.01;57.48
70976;BME280;58635;51.198;6.010;2023-02-16T09:01:43;102221.72;;;11.04;57.41
70976;BME280;58635;51.198;6.010;2023-02-16T09:04:09;102221.06;;;11.10;57.26
70976;BME280;58635;51.198;6.010;2023-02-16T09:06:37;102223.19;;;11.15;57.58
70976;BME280;58635;51.198;6.010;2023-02-16T09:09:04;102228.19;;;11.17;57.32
70976;BME280;58635;51.198;6.010;2023-02-16T09:11:29;102235.81;;;11.26;57.23
70976;BME280;58635;51.198;6.010;2023-02-16T09:13:55;102235.66;;;11.28;56.92
70976;BME280;58635;51.198;6.010;2023-02-16T09:16:22;102241.78;;;11.35;56.98
70976;BME280;58635;51.198;6.010;2023-02-16T09:18:49;102238.56;;;11.41;57.01
70976;BME280;58635;51.198;6.010;2023-02-16T09:21:21;102241.16;;;11.49;56.51
70976;BME280;58635;51.198;6.010;2023-02-16T09:23:48;102242.56;;;11.60;56.72
70976;BME280;58635;51.198;6.010;2023-02-16T09:26:18;102238.81;;;11.70;56.35
70976;BME280;58635;51.198;6.010;2023-02-16T09:28:45;102243.38;;;11.77;56.43
70976;BME280;58635;51.198;6.010;2023-02-16T09:31:16;102241.91;;;11.82;56.27
70976;BME280;58635;51.198;6.010;2023-02-16T09:33:52;102244.84;;;11.87;56.49
70976;BME280;58635;51.198;6.010;2023-02-16T09:36:17;102247.25;;;11.89;56.27
70976;BME280;58635;51.198;6.010;2023-02-16T09:38:43;102242.25;;;11.87;56.65
70976;BME280;58635;51.198;6.010;2023-02-16T09:41:39;102245.81;;;11.86;56.31
70976;BME280;58635;51.198;6.010;2023-02-16T09:46:42;102254.72;;;11.84;56.21
70976;BME280;58635;51.198;6.010;2023-02-16T09:52:00;102255.53;;;11.76;56.35
70976;BME280;58635;51.198;6.010;2023-02-16T09:54:48;102269.47;;;11.75;56.50
70976;BME280;58635;51.198;6.010;2023-02-16T09:59:51;102262.81;;;11.73;56.61
70976;BME280;58635;51.198;6.010;2023-02-16T10:05:25;102269.47;;;11.67;56.59
70976;BME280;58635;51.198;6.010;2023-02-16T10:08:02;102271.72;;;11.70;56.65
70976;BME280;58635;51.198;6.010;2023-02-16T10:13:05;102264.63;;;11.72;56.88
70976;BME280;58635;51.198;6.010;2023-02-16T10:15:36;102275.78;;;11.81;56.63
70976;BME280;58635;51.198;6.010;2023-02-16T10:20:38;102258.13;;;11.84;56.61
70976;BME280;58635;51.198;6.010;2023-02-16T10:23:20;102262.66;;;11.90;56.76
70976;BME280;58635;51.198;6.010;2023-02-16T10:26:09;102248.53;;;11.93;56.66
70976;BME280;58635;51.198;6.010;2023-02-16T10:31:37;102247.38;;;12.04;56.82
70976;BME280;58635;51.198;6.010;2023-02-16T10:39:41;102241.63;;;12.24;57.04
70976;BME280;58635;51.198;6.010;2023-02-16T10:44:55;102242.59;;;12.32;57.47
70976;BME280;58635;51.198;6.010;2023-02-16T10:47:30;102222.47;;;12.34;57.08
70976;BME280;58635;51.198;6.010;2023-02-16T10:49:57;102246.00;;;12.32;57.22
70976;BME280;58635;51.198;6.010;2023-02-16T10:52:23;102218.47;;;12.23;57.04
70976;BME280;58635;51.198;6.010;2023-02-16T10:54:50;102211.50;;;12.15;57.19
70976;BME280;58635;51.198;6.010;2023-02-16T10:57:27;102227.22;;;12.22;57.20
70976;BME280;58635;51.198;6.010;2023-02-16T10:59:56;102225.91;;;12.26;57.59
70976;BME280;58635;51.198;6.010;2023-02-16T11:02:41;102202.75;;;12.16;57.33
70976;BME280;58635;51.198;6.010;2023-02-16T11:05:29;102227.84;;;12.32;57.47
70976;BME280;58635;51.198;6.010;2023-02-16T11:07:57;102233.03;;;12.32;57.43
70976;BME280;58635;51.198;6.010;2023-02-16T11:10:51;102233.03;;;12.32;57.62
70976;BME280;58635;51.198;6.010;2023-02-16T11:13:30;102239.81;;;12.33;57.70
70976;BME280;58635;51.198;6.010;2023-02-16T11:16:00;102234.31;;;12.28;57.63
70976;BME280;58635;51.198;6.010;2023-02-16T11:18:46;102232.53;;;12.28;57.60
70976;BME280;58635;51.198;6.010;2023-02-16T11:21:14;102231.88;;;12.35;57.58
70976;BME280;58635;51.198;6.010;2023-02-16T11:23:41;102218.72;;;12.36;57.48
70976;BME280;58635;51.198;6.010;2023-02-16T11:28:47;102222.25;;;12.43;57.37
70976;BME280;58635;51.198;6.010;2023-02-16T11:36:45;102213.84;;;12.64;56.92
70976;BME280;58635;51.198;6.010;2023-02-16T11:39:23;102220.16;;;12.70;56.63
70976;BME280;58635;51.198;6.010;2023-02-16T11:41:52;102211.09;;;12.66;56.80
70976;BME280;58635;51.198;6.010;2023-02-16T11:44:37;102222.75;;;12.70;56.65
70976;BME280;58635;51.198;6.010;2023-02-16T11:47:07;102208.78;;;12.71;56.81
70976;BME280;58635;51.198;6.010;2023-02-16T11:49:40;102213.94;;;12.79;56.28
70976;BME280;58635;51.198;6.010;2023-02-16T11:52:28;102217.91;;;12.89;56.29
70976;BME280;58635;51.198;6.010;2023-02-16T11:54:56;102220.97;;;12.93;56.23
70976;BME280;58635;51.198;6.010;2023-02-16T11:57:29;102230.78;;;13.06;56.24
70976;BME280;58635;51.198;6.010;2023-02-16T11:59:56;102232.34;;;13.15;56.16
70976;BME280;58635;51.198;6.010;2023-02-16T12:02:43;102230.50;;;13.24;55.88
70976;BME280;58635;51.198;6.010;2023-02-16T12:08:17;102221.44;;;13.20;56.50
70976;BME280;58635;51.198;6.010;2023-02-16T12:24:43;102187.44;;;13.59;56.33
70976;BME280;58635;51.198;6.010;2023-02-16T12:27:27;102176.97;;;13.67;56.11
70976;BME280;58635;51.198;6.010;2023-02-16T12:30:11;102190.06;;;13.73;56.14
70976;BME280;58635;51.198;6.010;2023-02-16T12:35:49;102174.28;;;13.90;56.07
70976;BME280;58635;51.198;6.010;2023-02-16T12:43:49;102154.06;;;14.07;55.67
70976;BME280;58635;51.198;6.010;2023-02-16T12:46:17;102156.66;;;14.07;55.65
70976;BME280;58635;51.198;6.010;2023-02-16T12:48:58;102152.00;;;14.02;55.83
70976;BME280;58635;51.198;6.010;2023-02-16T12:51:29;102148.50;;;13.95;55.96
70976;BME280;58635;51.198;6.010;2023-02-16T12:54:00;102143.41;;;14.01;56.26
70976;BME280;58635;51.198;6.010;2023-02-16T12:56:36;102146.63;;;14.03;56.03
70976;BME280;58635;51.198;6.010;2023-02-16T12:59:23;102146.25;;;14.07;55.95
70976;BME280;58635;51.198;6.010;2023-02-16T13:01:51;102144.34;;;14.15;55.99
70976;BME280;58635;51.198;6.010;2023-02-16T13:12:27;102121.34;;;14.33;55.48
70976;BME280;58635;51.198;6.010;2023-02-16T13:15:05;102119.53;;;14.34;55.67
70976;BME280;58635;51.198;6.010;2023-02-16T13:17:55;102112.22;;;14.44;55.56
70976;BME280;58635;51.198;6.010;2023-02-16T13:20:22;102107.91;;;14.51;55.45
70976;BME280;58635;51.198;6.010;2023-02-16T13:28:42;102093.56;;;14.62;54.98
70976;BME280;58635;51.198;6.010;2023-02-16T13:31:44;102089.28;;;14.54;55.15
70976;BME280;58635;51.198;6.010;2023-02-16T13:34:50;102086.28;;;14.51;55.25
70976;BME280;58635;51.198;6.010;2023-02-16T13:37:22;102080.75;;;14.60;55.18
70976;BME280;58635;51.198;6.010;2023-02-16T13:40:12;102090.03;;;14.70;55.15
70976;BME280;58635;51.198;6.010;2023-02-16T13:45:36;102070.75;;;14.64;54.93
70976;BME280;58635;51.198;6.010;2023-02-16T13:48:12;102077.81;;;14.70;54.96
70976;BME280;58635;51.198;6.010;2023-02-16T13:50:39;102077.38;;;14.67;54.83
70976;BME280;58635;51.198;6.010;2023-02-16T13:53:17;102064.31;;;14.60;54.94
70976;BME280;58635;51.198;6.010;2023-02-16T13:55:45;102078.03;;;14.69;55.07
70976;BME280;58635;51.198;6.010;2023-02-16T14:05:50;102056.84;;;14.78;55.05
70976;BME280;58635;51.198;6.010;2023-02-16T14:08:23;102054.28;;;14.85;55.01
70976;BME280;58635;51.198;6.010;2023-02-16T14:13:27;102040.31;;;14.93;54.78
70976;BME280;58635;51.198;6.010;2023-02-16T14:15:55;102029.25;;;14.90;55.00
70976;BME280;58635;51.198;6.010;2023-02-16T14:18:30;102032.50;;;14.93;54.70
70976;BME280;58635;51.198;6.010;2023-02-16T14:21:04;102025.84;;;14.90;54.88
70976;BME280;58635;51.198;6.010;2023-02-16T14:23:32;102037.31;;;14.96;54.57
70976;BME280;58635;51.198;6.010;2023-02-16T14:26:03;102034.72;;;14.96;54.83
70976;BME280;58635;51.198;6.010;2023-02-16T14:31:02;102022.72;;;15.01;54.74
70976;BME280;58635;51.198;6.010;2023-02-16T14:41:05;101996.09;;;15.06;54.47
70976;BME280;58635;51.198;6.010;2023-02-16T14:43:44;101991.50;;;15.08;54.63
70976;BME280;58635;51.198;6.010;2023-02-16T14:51:45;101990.75;;;15.20;53.94
70976;BME280;58635;51.198;6.010;2023-02-16T14:54:46;101995.16;;;15.20;54.12
70976;BME280;58635;51.198;6.010;2023-02-16T15:02:40;101991.16;;;15.17;54.32
70976;BME280;58635;51.198;6.010;2023-02-16T15:05:20;101990.34;;;15.17;54.12
70976;BME280;58635;51.198;6.010;2023-02-16T15:07:48;101989.09;;;15.13;54.50
70976;BME280;58635;51.198;6.010;2023-02-16T15:10:18;101977.25;;;15.04;54.54
70976;BME280;58635;51.198;6.010;2023-02-16T15:12:46;101982.88;;;15.14;54.34
70976;BME280;58635;51.198;6.010;2023-02-16T15:16:02;101979.47;;;15.13;53.94
70976;BME280;58635;51.198;6.010;2023-02-16T15:18:14;101988.50;;;15.11;54.05
70976;BME280;58635;51.198;6.010;2023-02-16T15:20:42;101981.88;;;15.08;53.81
70976;BME280;58635;51.198;6.010;2023-02-16T15:23:23;101980.66;;;15.04;53.69
70976;BME280;58635;51.198;6.010;2023-02-16T15:26:04;101979.22;;;15.02;53.74
70976;BME280;58635;51.198;6.010;2023-02-16T15:28:34;101981.22;;;15.00;53.72